sensor_id;sensor_type;location;lat;lon;timestamp;P1;durP1;ratioP1;P2;durP2;ratioP2
24801;SDS011;12898;50.520;12.152;2022-10-31T00:01:11;26.40;;;14.73;;
24801;SDS011;12898;50.520;12.152;2022-10-31T00:03:40;23.98;;;13.65;;
24801;SDS011;12898;50.520;12.152;2022-10-31T00:06:06;21.05;;;13.60;;
24801;SDS011;12898;50.520;12.152;2022-10-31T00:08:32;24.33;;;13.15;;
24801;SDS011;12898;50.520;12.152;2022-10-31T00:10:57;23.52;;;14.80;;
24801;SDS011;12898;50.520;12.152;2022-10-31T00:13:23;25.08;;;14.98;;
24801;SDS011;12898;50.520;12.152;2022-10-31T00:15:49;24.00;;;15.13;;
24801;SDS011;12898;50.520;12.152;2022-10-31T00:18:14;24.75;;;16.20;;
24801;SDS011;12898;50.520;12.152;2022-10-31T00:20:40;26.98;;;15.93;;
24801;SDS011;12898;50.520;12.152;2022-10-31T00:23:06;22.30;;;15.35;;
24801;SDS011;12898;50.520;12.152;2022-10-31T00:25:36;23.75;;;15.02;;
24801;SDS011;12898;50.520;12.152;2022-10-31T00:28:04;28.35;;;14.43;;
24801;SDS011;12898;50.520;12.152;2022-10-31T00:30:32;22.42;;;14.05;;
24801;SDS011;12898;50.520;12.152;2022-10-31T00:32:58;24.98;;;15.95;;
24801;SDS011;12898;50.520;12.152;2022-10-31T00:35:24;24.27;;;15.15;;
24801;SDS011;12898;50.520;12.152;2022-10-31T00:37:49;25.83;;;14.50;;
24801;SDS011;12898;50.520;12.152;2022-10-31T00:40:15;24.15;;;13.88;;
24801;SDS011;12898;50.520;12.152;2022-10-31T00:42:41;25.60;;;15.48;;
24801;SDS011;12898;50.520;12.152;2022-10-31T00:45:08;25.42;;;15.27;;
24801;SDS011;12898;50.520;12.152;2022-10-31T00:47:34;27.83;;;15.60;;
24801;SDS011;12898;50.520;12.152;2022-10-31T00:50:00;26.83;;;16.58;;
24801;SDS011;12898;50.520;12.152;2022-10-31T00:52:26;32.17;;;18.08;;
24801;SDS011;12898;50.520;12.152;2022-10-31T00:54:51;29.60;;;20.17;;
24801;SDS011;12898;50.520;12.152;2022-10-31T00:57:17;30.17;;;20.42;;
24801;SDS011;12898;50.520;12.152;2022-10-31T00:59:43;30.13;;;20.03;;
24801;SDS011;12898;50.520;12.152;2022-10-31T01:02:08;28.65;;;19.65;;
24801;SDS011;12898;50.520;12.152;2022-10-31T01:04:34;30.42;;;19.02;;
24801;SDS011;12898;50.520;12.152;2022-10-31T01:07:00;30.57;;;19.43;;
24801;SDS011;12898;50.520;12.152;2022-10-31T01:09:25;25.55;;;18.27;;
24801;SDS011;12898;50.520;12.152;2022-10-31T01:11:51;28.75;;;19.17;;
24801;SDS011;12898;50.520;12.152;2022-10-31T01:14:17;27.00;;;18.92;;
24801;SDS011;12898;50.520;12.152;2022-10-31T01:16:42;31.43;;;20.73;;
24801;SDS011;12898;50.520;12.152;2022-10-31T01:19:08;25.40;;;18.08;;
24801;SDS011;12898;50.520;12.152;2022-10-31T01:21:33;26.52;;;16.13;;
24801;SDS011;12898;50.520;12.152;2022-10-31T01:23:59;25.10;;;15.63;;
24801;SDS011;12898;50.520;12.152;2022-10-31T01:26:28;25.40;;;14.48;;
24801;SDS011;12898;50.520;12.152;2022-10-31T01:29:00;23.77;;;13.70;;
24801;SDS011;12898;50.520;12.152;2022-10-31T01:31:30;23.27;;;13.70;;
24801;SDS011;12898;50.520;12.152;2022-10-31T01:34:02;25.17;;;13.05;;
24801;SDS011;12898;50.520;12.152;2022-10-31T01:36:33;25.05;;;14.07;;
24801;SDS011;12898;50.520;12.152;2022-10-31T01:39:02;23.50;;;14.07;;
24801;SDS011;12898;50.520;12.152;2022-10-31T01:41:39;25.75;;;13.20;;
24801;SDS011;12898;50.520;12.152;2022-10-31T01:46:48;23.30;;;13.35;;
24801;SDS011;12898;50.520;12.152;2022-10-31T01:49:28;19.77;;;12.70;;
24801;SDS011;12898;50.520;12.152;2022-10-31T01:54:35;25.23;;;16.80;;
24801;SDS011;12898;50.520;12.152;2022-10-31T01:57:06;26.95;;;15.38;;
24801;SDS011;12898;50.520;12.152;2022-10-31T01:59:35;23.30;;;14.23;;
24801;SDS011;12898;50.520;12.152;2022-10-31T02:02:09;25.40;;;14.52;;
24801;SDS011;12898;50.520;12.152;2022-10-31T02:04:36;21.98;;;13.65;;
24801;SDS011;12898;50.520;12.152;2022-10-31T02:07:04;21.75;;;12.88;;
24801;SDS011;12898;50.520;12.152;2022-10-31T02:09:38;20.13;;;12.05;;
24801;SDS011;12898;50.520;12.152;2022-10-31T02:12:05;21.15;;;12.20;;
24801;SDS011;12898;50.520;12.152;2022-10-31T02:14:33;21.77;;;13.13;;
24801;SDS011;12898;50.520;12.152;2022-10-31T02:17:00;21.35;;;12.48;;
24801;SDS011;12898;50.520;12.152;2022-10-31T02:28:25;21.60;;;13.85;;
24801;SDS011;12898;50.520;12.152;2022-10-31T02:31:41;22.17;;;12.75;;
24801;SDS011;12898;50.520;12.152;2022-10-31T02:34:30;22.77;;;13.40;;
24801;SDS011;12898;50.520;12.152;2022-10-31T02:37:19;21.43;;;12.93;;
24801;SDS011;12898;50.520;12.152;2022-10-31T02:40:05;23.33;;;12.33;;
24801;SDS011;12898;50.520;12.152;2022-10-31T02:43:05;20.17;;;11.50;;
24801;SDS011;12898;50.520;12.152;2022-10-31T02:48:40;20.57;;;12.60;;
24801;SDS011;12898;50.520;12.152;2022-10-31T02:51:09;19.40;;;12.38;;
24801;SDS011;12898;50.520;12.152;2022-10-31T02:53:36;18.80;;;11.80;;
24801;SDS011;12898;50.520;12.152;2022-10-31T02:58:38;19.08;;;11.32;;
24801;SDS011;12898;50.520;12.152;2022-10-31T03:10:31;19.90;;;11.63;;
24801;SDS011;12898;50.520;12.152;2022-10-31T03:13:09;18.98;;;10.07;;
24801;SDS011;12898;50.520;12.152;2022-10-31T03:16:19;19.57;;;11.13;;
24801;SDS011;12898;50.520;12.152;2022-10-31T03:18:40;17.25;;;10.65;;
24801;SDS011;12898;50.520;12.152;2022-10-31T03:21:16;24.27;;;11.43;;
24801;SDS011;12898;50.520;12.152;2022-10-31T03:23:49;16.85;;;11.63;;
24801;SDS011;12898;50.520;12.152;2022-10-31T03:26:16;20.17;;;11.50;;
24801;SDS011;12898;50.520;12.152;2022-10-31T03:28:47;20.55;;;11.32;;
24801;SDS011;12898;50.520;12.152;2022-10-31T03:31:21;18.13;;;11.17;;
24801;SDS011;12898;50.520;12.152;2022-10-31T03:33:52;18.73;;;11.20;;
24801;SDS011;12898;50.520;12.152;2022-10-31T03:36:21;22.80;;;12.47;;
24801;SDS011;12898;50.520;12.152;2022-10-31T03:38:47;21.93;;;11.23;;
24801;SDS011;12898;50.520;12.152;2022-10-31T03:41:16;21.83;;;12.47;;
24801;SDS011;12898;50.520;12.152;2022-10-31T03:43:51;19.30;;;12.33;;
24801;SDS011;12898;50.520;12.152;2022-10-31T03:46:23;21.53;;;12.90;;
24801;SDS011;12898;50.520;12.152;2022-10-31T03:48:49;20.87;;;13.70;;
24801;SDS011;12898;50.520;12.152;2022-10-31T03:53:57;23.53;;;14.57;;
24801;SDS011;12898;50.520;12.152;2022-10-31T03:56:36;26.47;;;14.63;;
24801;SDS011;12898;50.520;12.152;2022-10-31T03:59:20;24.93;;;14.57;;
24801;SDS011;12898;50.520;12.152;2022-10-31T04:02:02;24.50;;;14.73;;
24801;SDS011;12898;50.520;12.152;2022-10-31T04:04:33;25.60;;;14.33;;
24801;SDS011;12898;50.520;12.152;2022-10-31T04:07:00;23.27;;;13.50;;
24801;SDS011;12898;50.520;12.152;2022-10-31T04:09:28;22.83;;;13.37;;
24801;SDS011;12898;50.520;12.152;2022-10-31T04:11:58;22.77;;;13.77;;
24801;SDS011;12898;50.520;12.152;2022-10-31T04:14:29;22.07;;;12.10;;
24801;SDS011;12898;50.520;12.152;2022-10-31T04:16:57;20.43;;;12.43;;
24801;SDS011;12898;50.520;12.152;2022-10-31T04:19:23;21.23;;;12.23;;
24801;SDS011;12898;50.520;12.152;2022-10-31T04:21:48;21.87;;;11.93;;
24801;SDS011;12898;50.520;12.152;2022-10-31T04:24:14;21.30;;;12.70;;
24801;SDS011;12898;50.520;12.152;2022-10-31T04:26:40;19.50;;;12.17;;
24801;SDS011;12898;50.520;12.152;2022-10-31T04:29:05;17.77;;;11.63;;
24801;SDS011;12898;50.520;12.152;2022-10-31T04:31:31;19.57;;;11.57;;
24801;SDS011;12898;50.520;12.152;2022-10-31T04:33:56;21.43;;;11.30;;
24801;SDS011;12898;50.520;12.152;2022-10-31T04:36:22;21.70;;;11.77;;
24801;SDS011;12898;50.520;12.152;2022-10-31T04:38:48;19.17;;;11.67;;
24801;SDS011;12898;50.520;12.152;2022-10-31T04:41:13;16.80;;;11.00;;
24801;SDS011;12898;50.520;12.152;2022-10-31T04:43:39;18.43;;;11.70;;
24801;SDS011;12898;50.520;12.152;2022-10-31T04:46:05;21.13;;;11.33;;
24801;SDS011;12898;50.520;12.152;2022-10-31T04:48:30;18.80;;;10.47;;
24801;SDS011;12898;50.520;12.152;2022-10-31T04:51:00;21.57;;;11.30;;
24801;SDS011;12898;50.520;12.152;2022-10-31T04:53:27;19.53;;;11.03;;
24801;SDS011;12898;50.520;12.152;2022-10-31T04:55:54;22.80;;;11.97;;
24801;SDS011;12898;50.520;12.152;2022-10-31T04:58:19;18.83;;;11.63;;
24801;SDS011;12898;50.520;12.152;2022-10-31T05:00:45;19.20;;;10.23;;
24801;SDS011;12898;50.520;12.152;2022-10-31T05:03:11;16.50;;;9.93;;
24801;SDS011;12898;50.520;12.152;2022-10-31T05:05:37;17.57;;;10.47;;
24801;SDS011;12898;50.520;12.152;2022-10-31T05:08:03;18.17;;;10.17;;
24801;SDS011;12898;50.520;12.152;2022-10-31T05:10:29;20.53;;;11.30;;
24801;SDS011;12898;50.520;12.152;2022-10-31T05:12:56;17.57;;;10.03;;
24801;SDS011;12898;50.520;12.152;2022-10-31T05:15:25;20.07;;;10.87;;
24801;SDS011;12898;50.520;12.152;2022-10-31T05:17:52;19.93;;;10.70;;
24801;SDS011;12898;50.520;12.152;2022-10-31T05:20:19;20.27;;;11.73;;
24801;SDS011;12898;50.520;12.152;2022-10-31T05:22:50;20.60;;;12.40;;
24801;SDS011;12898;50.520;12.152;2022-10-31T05:25:18;19.57;;;11.83;;
24801;SDS011;12898;50.520;12.152;2022-10-31T05:27:47;20.77;;;11.77;;
24801;SDS011;12898;50.520;12.152;2022-10-31T05:30:16;19.07;;;11.53;;
24801;SDS011;12898;50.520;12.152;2022-10-31T05:32:47;21.13;;;12.07;;
24801;SDS011;12898;50.520;12.152;2022-10-31T05:35:15;19.10;;;12.03;;
24801;SDS011;12898;50.520;12.152;2022-10-31T05:37:46;18.67;;;11.20;;
24801;SDS011;12898;50.520;12.152;2022-10-31T05:40:13;18.33;;;11.50;;
24801;SDS011;12898;50.520;12.152;2022-10-31T05:42:41;24.10;;;11.27;;
24801;SDS011;12898;50.520;12.152;2022-10-31T05:45:11;18.50;;;11.33;;
24801;SDS011;12898;50.520;12.152;2022-10-31T05:47:40;22.17;;;11.97;;
24801;SDS011;12898;50.520;12.152;2022-10-31T05:50:19;21.43;;;10.47;;
24801;SDS011;12898;50.520;12.152;2022-10-31T05:52:45;18.47;;;10.43;;
24801;SDS011;12898;50.520;12.152;2022-10-31T05:55:11;19.20;;;10.73;;
24801;SDS011;12898;50.520;12.152;2022-10-31T05:57:37;24.43;;;12.73;;
24801;SDS011;12898;50.520;12.152;2022-10-31T06:00:03;19.60;;;11.33;;
24801;SDS011;12898;50.520;12.152;2022-10-31T06:02:30;18.17;;;11.10;;
24801;SDS011;12898;50.520;12.152;2022-10-31T06:04:59;22.87;;;13.57;;
24801;SDS011;12898;50.520;12.152;2022-10-31T06:07:26;19.17;;;11.53;;
24801;SDS011;12898;50.520;12.152;2022-10-31T06:09:52;20.33;;;11.27;;
24801;SDS011;12898;50.520;12.152;2022-10-31T06:12:17;16.63;;;10.47;;
24801;SDS011;12898;50.520;12.152;2022-10-31T06:14:43;18.17;;;11.13;;
24801;SDS011;12898;50.520;12.152;2022-10-31T06:17:09;18.70;;;11.37;;
24801;SDS011;12898;50.520;12.152;2022-10-31T06:19:34;20.50;;;11.90;;
24801;SDS011;12898;50.520;12.152;2022-10-31T06:22:00;20.90;;;12.13;;
24801;SDS011;12898;50.520;12.152;2022-10-31T06:24:26;18.57;;;11.97;;
24801;SDS011;12898;50.520;12.152;2022-10-31T06:26:51;19.47;;;11.17;;
24801;SDS011;12898;50.520;12.152;2022-10-31T06:29:17;19.93;;;11.37;;
24801;SDS011;12898;50.520;12.152;2022-10-31T06:31:42;17.33;;;11.23;;
24801;SDS011;12898;50.520;12.152;2022-10-31T06:34:08;18.87;;;11.03;;
24801;SDS011;12898;50.520;12.152;2022-10-31T06:36:34;19.23;;;11.57;;
24801;SDS011;12898;50.520;12.152;2022-10-31T06:39:00;20.03;;;12.47;;
24801;SDS011;12898;50.520;12.152;2022-10-31T06:41:25;25.77;;;13.37;;
24801;SDS011;12898;50.520;12.152;2022-10-31T06:43:51;20.23;;;12.63;;
24801;SDS011;12898;50.520;12.152;2022-10-31T06:46:17;18.40;;;12.00;;
24801;SDS011;12898;50.520;12.152;2022-10-31T06:48:42;23.33;;;12.20;;
24801;SDS011;12898;50.520;12.152;2022-10-31T06:51:08;19.13;;;11.27;;
24801;SDS011;12898;50.520;12.152;2022-10-31T06:53:34;19.67;;;12.87;;
24801;SDS011;12898;50.520;12.152;2022-10-31T06:56:00;18.73;;;11.00;;
24801;SDS011;12898;50.520;12.152;2022-10-31T06:58:25;19.30;;;12.30;;
24801;SDS011;12898;50.520;12.152;2022-10-31T07:00:51;18.87;;;11.40;;
24801;SDS011;12898;50.520;12.152;2022-10-31T07:03:17;16.97;;;11.33;;
24801;SDS011;12898;50.520;12.152;2022-10-31T07:05:42;17.87;;;10.63;;
24801;SDS011;12898;50.520;12.152;2022-10-31T07:08:10;16.90;;;10.43;;
24801;SDS011;12898;50.520;12.152;2022-10-31T07:10:38;16.70;;;11.33;;
24801;SDS011;12898;50.520;12.152;2022-10-31T07:13:06;16.67;;;10.17;;
24801;SDS011;12898;50.520;12.152;2022-10-31T07:15:38;16.83;;;10.10;;
24801;SDS011;12898;50.520;12.152;2022-10-31T07:18:06;18.50;;;10.07;;
24801;SDS011;12898;50.520;12.152;2022-10-31T07:20:33;16.88;;;9.88;;
24801;SDS011;12898;50.520;12.152;2022-10-31T07:22:59;14.10;;;9.68;;
24801;SDS011;12898;50.520;12.152;2022-10-31T07:25:25;14.95;;;9.45;;
24801;SDS011;12898;50.520;12.152;2022-10-31T07:27:52;16.90;;;9.65;;
24801;SDS011;12898;50.520;12.152;2022-10-31T07:30:18;20.67;;;10.70;;
24801;SDS011;12898;50.520;12.152;2022-10-31T07:32:45;18.70;;;9.90;;
24801;SDS011;12898;50.520;12.152;2022-10-31T07:35:14;16.48;;;9.77;;
24801;SDS011;12898;50.520;12.152;2022-10-31T07:37:50;15.80;;;9.10;;
24801;SDS011;12898;50.520;12.152;2022-10-31T07:40:16;15.68;;;8.57;;
24801;SDS011;12898;50.520;12.152;2022-10-31T07:42:44;13.25;;;8.27;;
24801;SDS011;12898;50.520;12.152;2022-10-31T07:45:19;13.90;;;8.95;;
24801;SDS011;12898;50.520;12.152;2022-10-31T07:50:14;14.02;;;7.25;;
24801;SDS011;12898;50.520;12.152;2022-10-31T07:52:42;16.27;;;7.70;;
24801;SDS011;12898;50.520;12.152;2022-10-31T07:55:08;18.55;;;8.48;;
24801;SDS011;12898;50.520;12.152;2022-10-31T07:57:34;14.82;;;7.57;;
24801;SDS011;12898;50.520;12.152;2022-10-31T08:00:02;17.08;;;8.07;;
24801;SDS011;12898;50.520;12.152;2022-10-31T08:02:29;15.55;;;8.05;;
24801;SDS011;12898;50.520;12.152;2022-10-31T08:04:55;13.90;;;8.23;;
24801;SDS011;12898;50.520;12.152;2022-10-31T08:07:21;15.35;;;7.40;;
24801;SDS011;12898;50.520;12.152;2022-10-31T08:09:46;13.20;;;7.45;;
24801;SDS011;12898;50.520;12.152;2022-10-31T08:12:12;13.85;;;8.35;;
24801;SDS011;12898;50.520;12.152;2022-10-31T08:14:38;14.80;;;7.75;;
24801;SDS011;12898;50.520;12.152;2022-10-31T08:17:04;14.13;;;7.57;;
24801;SDS011;12898;50.520;12.152;2022-10-31T08:19:29;12.38;;;7.32;;
24801;SDS011;12898;50.520;12.152;2022-10-31T08:21:55;14.70;;;7.65;;
24801;SDS011;12898;50.520;12.152;2022-10-31T08:24:23;15.23;;;7.82;;
24801;SDS011;12898;50.520;12.152;2022-10-31T08:26:49;17.27;;;7.70;;
24801;SDS011;12898;50.520;12.152;2022-10-31T08:29:14;13.52;;;7.22;;
24801;SDS011;12898;50.520;12.152;2022-10-31T08:31:41;16.65;;;8.07;;
24801;SDS011;12898;50.520;12.152;2022-10-31T08:34:07;15.07;;;6.88;;
24801;SDS011;12898;50.520;12.152;2022-10-31T08:36:33;14.15;;;6.60;;
24801;SDS011;12898;50.520;12.152;2022-10-31T08:38:59;13.55;;;6.93;;
24801;SDS011;12898;50.520;12.152;2022-10-31T08:41:25;16.92;;;7.03;;
24801;SDS011;12898;50.520;12.152;2022-10-31T08:43:51;12.63;;;7.00;;
24801;SDS011;12898;50.520;12.152;2022-10-31T08:46:17;17.50;;;7.00;;
24801;SDS011;12898;50.520;12.152;2022-10-31T08:48:43;14.30;;;6.85;;
24801;SDS011;12898;50.520;12.152;2022-10-31T08:51:09;14.10;;;6.63;;
24801;SDS011;12898;50.520;12.152;2022-10-31T08:53:35;12.60;;;7.05;;
24801;SDS011;12898;50.520;12.152;2022-10-31T08:56:02;14.35;;;6.93;;
24801;SDS011;12898;50.520;12.152;2022-10-31T08:58:27;12.00;;;7.00;;
24801;SDS011;12898;50.520;12.152;2022-10-31T09:00:54;15.50;;;7.32;;
24801;SDS011;12898;50.520;12.152;2022-10-31T09:03:25;15.70;;;6.22;;
24801;SDS011;12898;50.520;12.152;2022-10-31T09:06:00;12.57;;;6.15;;
24801;SDS011;12898;50.520;12.152;2022-10-31T09:08:30;13.25;;;6.50;;
24801;SDS011;12898;50.520;12.152;2022-10-31T09:10:58;15.18;;;6.60;;
24801;SDS011;12898;50.520;12.152;2022-10-31T09:13:24;14.38;;;6.22;;
24801;SDS011;12898;50.520;12.152;2022-10-31T09:15:50;17.75;;;7.03;;
24801;SDS011;12898;50.520;12.152;2022-10-31T09:18:17;12.55;;;6.38;;
24801;SDS011;12898;50.520;12.152;2022-10-31T09:20:45;12.98;;;6.57;;
24801;SDS011;12898;50.520;12.152;2022-10-31T09:23:19;13.68;;;6.38;;
24801;SDS011;12898;50.520;12.152;2022-10-31T09:25:48;15.10;;;6.95;;
24801;SDS011;12898;50.520;12.152;2022-10-31T09:28:18;14.20;;;6.10;;
24801;SDS011;12898;50.520;12.152;2022-10-31T09:30:47;13.80;;;6.50;;
24801;SDS011;12898;50.520;12.152;2022-10-31T09:33:15;15.10;;;6.18;;
24801;SDS011;12898;50.520;12.152;2022-10-31T09:35:41;15.43;;;7.47;;
24801;SDS011;12898;50.520;12.152;2022-10-31T09:38:11;22.58;;;8.23;;
24801;SDS011;12898;50.520;12.152;2022-10-31T09:40:48;15.50;;;6.13;;
24801;SDS011;12898;50.520;12.152;2022-10-31T09:43:33;16.05;;;7.00;;
24801;SDS011;12898;50.520;12.152;2022-10-31T09:50:10;16.63;;;7.13;;
24801;SDS011;12898;50.520;12.152;2022-10-31T09:52:50;18.83;;;7.93;;
24801;SDS011;12898;50.520;12.152;2022-10-31T09:55:41;14.05;;;5.38;;
24801;SDS011;12898;50.520;12.152;2022-10-31T09:58:14;17.92;;;8.50;;
24801;SDS011;12898;50.520;12.152;2022-10-31T10:00:53;12.70;;;4.88;;
24801;SDS011;12898;50.520;12.152;2022-10-31T10:06:13;11.77;;;4.57;;
24801;SDS011;12898;50.520;12.152;2022-10-31T10:08:43;11.80;;;4.55;;
24801;SDS011;12898;50.520;12.152;2022-10-31T10:20:13;16.30;;;6.63;;
24801;SDS011;12898;50.520;12.152;2022-10-31T10:26:26;15.20;;;5.53;;
24801;SDS011;12898;50.520;12.152;2022-10-31T10:28:57;13.18;;;5.07;;
24801;SDS011;12898;50.520;12.152;2022-10-31T10:31:28;11.98;;;5.30;;
24801;SDS011;12898;50.520;12.152;2022-10-31T10:37:02;11.63;;;5.07;;
24801;SDS011;12898;50.520;12.152;2022-10-31T10:39:45;12.73;;;4.68;;
24801;SDS011;12898;50.520;12.152;2022-10-31T10:42:16;14.60;;;4.80;;
24801;SDS011;12898;50.520;12.152;2022-10-31T10:45:06;14.13;;;4.95;;
24801;SDS011;12898;50.520;12.152;2022-10-31T10:48:08;8.23;;;4.35;;
24801;SDS011;12898;50.520;12.152;2022-10-31T10:51:05;13.05;;;4.50;;
24801;SDS011;12898;50.520;12.152;2022-10-31T10:53:40;9.57;;;4.32;;
24801;SDS011;12898;50.520;12.152;2022-10-31T10:57:05;13.50;;;5.40;;
24801;SDS011;12898;50.520;12.152;2022-10-31T10:59:51;10.85;;;4.80;;
24801;SDS011;12898;50.520;12.152;2022-10-31T11:02:22;13.63;;;3.88;;
24801;SDS011;12898;50.520;12.152;2022-10-31T11:04:55;9.65;;;3.80;;
24801;SDS011;12898;50.520;12.152;2022-10-31T11:07:24;11.82;;;4.20;;
24801;SDS011;12898;50.520;12.152;2022-10-31T11:09:51;15.57;;;4.93;;
24801;SDS011;12898;50.520;12.152;2022-10-31T11:12:32;12.55;;;4.35;;
24801;SDS011;12898;50.520;12.152;2022-10-31T11:15:00;12.60;;;3.95;;
24801;SDS011;12898;50.520;12.152;2022-10-31T11:17:34;10.95;;;4.07;;
24801;SDS011;12898;50.520;12.152;2022-10-31T11:20:06;12.63;;;4.47;;
24801;SDS011;12898;50.520;12.152;2022-10-31T11:22:48;12.50;;;4.50;;
24801;SDS011;12898;50.520;12.152;2022-10-31T11:25:24;11.02;;;4.45;;
24801;SDS011;12898;50.520;12.152;2022-10-31T11:28:09;14.85;;;4.63;;
24801;SDS011;12898;50.520;12.152;2022-10-31T11:30:45;11.85;;;4.28;;
24801;SDS011;12898;50.520;12.152;2022-10-31T11:35:57;10.32;;;4.53;;
24801;SDS011;12898;50.520;12.152;2022-10-31T11:38:24;10.68;;;4.55;;
24801;SDS011;12898;50.520;12.152;2022-10-31T11:43:44;11.88;;;4.55;;
24801;SDS011;12898;50.520;12.152;2022-10-31T11:46:30;14.73;;;4.47;;
24801;SDS011;12898;50.520;12.152;2022-10-31T11:49:02;11.85;;;4.32;;
24801;SDS011;12898;50.520;12.152;2022-10-31T11:51:30;10.75;;;4.38;;
24801;SDS011;12898;50.520;12.152;2022-10-31T11:53:59;16.25;;;4.60;;
24801;SDS011;12898;50.520;12.152;2022-10-31T11:56:39;12.88;;;4.72;;
24801;SDS011;12898;50.520;12.152;2022-10-31T11:59:15;10.45;;;4.13;;
24801;SDS011;12898;50.520;12.152;2022-10-31T12:01:57;9.98;;;4.20;;
24801;SDS011;12898;50.520;12.152;2022-10-31T12:04:43;13.52;;;4.72;;
24801;SDS011;12898;50.520;12.152;2022-10-31T12:07:22;12.45;;;4.60;;
24801;SDS011;12898;50.520;12.152;2022-10-31T12:09:49;11.65;;;4.50;;
24801;SDS011;12898;50.520;12.152;2022-10-31T12:12:19;9.80;;;4.32;;
24801;SDS011;12898;50.520;12.152;2022-10-31T12:21:19;11.73;;;4.22;;
24801;SDS011;12898;50.520;12.152;2022-10-31T12:35:51;12.35;;;4.88;;
24801;SDS011;12898;50.520;12.152;2022-10-31T13:02:24;12.32;;;4.35;;
24801;SDS011;12898;50.520;12.152;2022-10-31T13:08:09;20.52;;;4.65;;
24801;SDS011;12898;50.520;12.152;2022-10-31T13:10:46;10.45;;;4.22;;
24801;SDS011;12898;50.520;12.152;2022-10-31T13:13:27;13.85;;;4.88;;
24801;SDS011;12898;50.520;12.152;2022-10-31T13:16:22;14.20;;;4.22;;
24801;SDS011;12898;50.520;12.152;2022-10-31T13:18:59;14.07;;;4.78;;
24801;SDS011;12898;50.520;12.152;2022-10-31T13:24:35;12.18;;;4.82;;
24801;SDS011;12898;50.520;12.152;2022-10-31T13:27:11;13.82;;;4.70;;
24801;SDS011;12898;50.520;12.152;2022-10-31T13:32:40;13.75;;;4.45;;
24801;SDS011;12898;50.520;12.152;2022-10-31T13:35:46;13.38;;;4.60;;
24801;SDS011;12898;50.520;12.152;2022-10-31T13:38:33;12.82;;;5.13;;
24801;SDS011;12898;50.520;12.152;2022-10-31T13:46:40;13.02;;;4.60;;
24801;SDS011;12898;50.520;12.152;2022-10-31T13:54:36;11.80;;;4.35;;
24801;SDS011;12898;50.520;12.152;2022-10-31T13:59:56;11.35;;;4.30;;
24801;SDS011;12898;50.520;12.152;2022-10-31T14:02:26;12.00;;;4.75;;
24801;SDS011;12898;50.520;12.152;2022-10-31T14:07:48;11.82;;;4.18;;
24801;SDS011;12898;50.520;12.152;2022-10-31T14:10:35;11.52;;;4.45;;
24801;SDS011;12898;50.520;12.152;2022-10-31T14:13:04;10.38;;;4.47;;
24801;SDS011;12898;50.520;12.152;2022-10-31T14:15:40;14.30;;;5.30;;
24801;SDS011;12898;50.520;12.152;2022-10-31T14:18:25;18.95;;;4.68;;
24801;SDS011;12898;50.520;12.152;2022-10-31T14:20:59;13.27;;;5.00;;
24801;SDS011;12898;50.520;12.152;2022-10-31T14:26:06;16.80;;;7.35;;
24801;SDS011;12898;50.520;12.152;2022-10-31T14:28:54;14.85;;;6.15;;
24801;SDS011;12898;50.520;12.152;2022-10-31T14:31:38;15.30;;;5.78;;
24801;SDS011;12898;50.520;12.152;2022-10-31T14:51:14;14.23;;;5.25;;
24801;SDS011;12898;50.520;12.152;2022-10-31T14:56:25;11.75;;;6.05;;
24801;SDS011;12898;50.520;12.152;2022-10-31T14:58:59;12.10;;;6.20;;
24801;SDS011;12898;50.520;12.152;2022-10-31T15:01:29;14.27;;;5.28;;
24801;SDS011;12898;50.520;12.152;2022-10-31T15:04:00;13.75;;;4.70;;
24801;SDS011;12898;50.520;12.152;2022-10-31T15:06:42;12.32;;;5.03;;
24801;SDS011;12898;50.520;12.152;2022-10-31T15:09:21;11.35;;;4.85;;
24801;SDS011;12898;50.520;12.152;2022-10-31T15:11:55;12.30;;;5.38;;
24801;SDS011;12898;50.520;12.152;2022-10-31T15:15:11;12.45;;;5.07;;
24801;SDS011;12898;50.520;12.152;2022-10-31T15:17:43;10.25;;;5.00;;
24801;SDS011;12898;50.520;12.152;2022-10-31T15:20:17;13.48;;;5.18;;
24801;SDS011;12898;50.520;12.152;2022-10-31T15:22:52;14.05;;;5.43;;
24801;SDS011;12898;50.520;12.152;2022-10-31T15:25:21;13.45;;;5.10;;
24801;SDS011;12898;50.520;12.152;2022-10-31T15:27:50;12.77;;;6.15;;
24801;SDS011;12898;50.520;12.152;2022-10-31T15:30:18;12.38;;;5.80;;
24801;SDS011;12898;50.520;12.152;2022-10-31T15:32:52;15.63;;;6.03;;
24801;SDS011;12898;50.520;12.152;2022-10-31T15:35:25;11.57;;;6.28;;
24801;SDS011;12898;50.520;12.152;2022-10-31T15:37:52;13.68;;;5.78;;
24801;SDS011;12898;50.520;12.152;2022-10-31T15:40:19;13.60;;;6.15;;
24801;SDS011;12898;50.520;12.152;2022-10-31T15:42:51;12.85;;;5.95;;
24801;SDS011;12898;50.520;12.152;2022-10-31T15:45:28;14.68;;;6.25;;
24801;SDS011;12898;50.520;12.152;2022-10-31T15:48:01;17.02;;;6.57;;
24801;SDS011;12898;50.520;12.152;2022-10-31T15:50:44;14.77;;;8.27;;
24801;SDS011;12898;50.520;12.152;2022-10-31T15:53:19;16.33;;;9.50;;
24801;SDS011;12898;50.520;12.152;2022-10-31T15:56:02;23.63;;;15.43;;
24801;SDS011;12898;50.520;12.152;2022-10-31T15:58:32;24.42;;;14.82;;
24801;SDS011;12898;50.520;12.152;2022-10-31T16:01:18;20.17;;;12.13;;
24801;SDS011;12898;50.520;12.152;2022-10-31T16:04:00;19.08;;;10.57;;
24801;SDS011;12898;50.520;12.152;2022-10-31T16:06:29;21.40;;;11.30;;
24801;SDS011;12898;50.520;12.152;2022-10-31T16:08:57;22.00;;;11.32;;
24801;SDS011;12898;50.520;12.152;2022-10-31T16:11:38;19.27;;;12.77;;
24801;SDS011;12898;50.520;12.152;2022-10-31T16:14:05;22.63;;;11.85;;
24801;SDS011;12898;50.520;12.152;2022-10-31T16:16:48;19.58;;;10.93;;
24801;SDS011;12898;50.520;12.152;2022-10-31T16:19:19;17.60;;;11.27;;
24801;SDS011;12898;50.520;12.152;2022-10-31T16:21:47;18.42;;;11.85;;
24801;SDS011;12898;50.520;12.152;2022-10-31T16:24:20;23.45;;;13.35;;
24801;SDS011;12898;50.520;12.152;2022-10-31T16:26:57;18.40;;;10.80;;
24801;SDS011;12898;50.520;12.152;2022-10-31T16:29:50;17.77;;;9.32;;
24801;SDS011;12898;50.520;12.152;2022-10-31T16:35:26;15.65;;;7.03;;
24801;SDS011;12898;50.520;12.152;2022-10-31T16:37:57;16.13;;;7.53;;
24801;SDS011;12898;50.520;12.152;2022-10-31T16:40:28;13.85;;;6.53;;
24801;SDS011;12898;50.520;12.152;2022-10-31T16:42:59;16.65;;;8.15;;
24801;SDS011;12898;50.520;12.152;2022-10-31T16:45:27;19.27;;;8.48;;
24801;SDS011;12898;50.520;12.152;2022-10-31T16:48:06;18.50;;;8.90;;
24801;SDS011;12898;50.520;12.152;2022-10-31T16:50:40;16.65;;;8.57;;
24801;SDS011;12898;50.520;12.152;2022-10-31T16:53:09;19.35;;;9.57;;
24801;SDS011;12898;50.520;12.152;2022-10-31T16:55:46;21.88;;;13.40;;
24801;SDS011;12898;50.520;12.152;2022-10-31T16:58:23;31.08;;;19.40;;
24801;SDS011;12898;50.520;12.152;2022-10-31T17:01:00;46.05;;;32.95;;
24801;SDS011;12898;50.520;12.152;2022-10-31T17:03:28;42.40;;;27.95;;
24801;SDS011;12898;50.520;12.152;2022-10-31T17:05:55;34.28;;;21.48;;
24801;SDS011;12898;50.520;12.152;2022-10-31T17:08:21;26.23;;;17.13;;
24801;SDS011;12898;50.520;12.152;2022-10-31T17:10:50;23.42;;;14.57;;
24801;SDS011;12898;50.520;12.152;2022-10-31T17:13:21;21.67;;;11.52;;
24801;SDS011;12898;50.520;12.152;2022-10-31T17:15:52;18.42;;;10.95;;